Time,TemperatureF,DewpointF,PressureIn,WindDirection,WindDirectionDegrees,WindSpeedMPH,WindSpeedGustMPH,Humidity,HourlyPrecipIn,Conditions,Clouds,dailyrainin,SoftwareType,DateUTC
2013-08-29 00:01:00,54.0,-99.9,-100.00,North,-999,-999.0,-999.0,86,-99.99,,,-99.99,,2013-08-29 07:01:00,
2013-08-29 00:21:00,53.0,49.0,-100.00,North,-999,-999.0,-999.0,84,-99.99,,,-99.99,,2013-08-29 07:21:00,
2013-08-29 00:42:00,52.0,48.0,-100.00,North,-999,-999.0,-999.0,86,-99.99,,,-99.99,,2013-08-29 07:42:00,
2013-08-29 00:53:00,-999.0,-99.9,-100.00,South,170,0.0,-999.0,-999,-99.99,,,-99.99,,2013-08-29 07:53:00,
2013-08-29 01:02:00,-999.0,-99.9,-100.00,South,170,0.0,-999.0,-999,-99.99,,,-99.99,,2013-08-29 08:02:00,
2013-08-29 01:42:00,52.0,48.0,-100.00,North,-999,-999.0,-999.0,87,-99.99,,,-99.99,,2013-08-29 08:42:00,
2013-08-29 01:52:00,52.0,47.0,-100.00,North,-999,-999.0,-999.0,84,-99.99,,,-99.99,,2013-08-29 08:52:00,
2013-08-29 02:12:00,51.0,47.0,-100.00,North,-999,-999.0,-999.0,84,-99.99,,,-99.99,,2013-08-29 09:12:00,
2013-08-29 03:24:00,51.0,44.0,-100.00,North,-999,-999.0,-999.0,76,-99.99,,,-99.99,,2013-08-29 10:24:00,
2013-08-29 03:33:00,51.0,44.0,-100.00,North,-999,-999.0,-999.0,76,-99.99,,,-99.99,,2013-08-29 10:33:00,
2013-08-29 04:22:00,-999.0,-99.9,-100.00,SSE,160,0.0,-999.0,-999,-99.99,,,-99.99,,2013-08-29 11:22:00,
2013-08-29 04:33:00,-999.0,-99.9,-100.00,SSE,160,0.0,-999.0,-999,-99.99,,,-99.99,,2013-08-29 11:33:00,
2013-08-29 05:02:00,-999.0,-99.9,-100.00,SSE,160,1.0,-999.0,-999,-99.99,,,-99.99,,2013-08-29 12:02:00,
2013-08-29 05:12:00,-999.0,-99.9,-100.00,SSE,160,1.0,-999.0,-999,-99.99,,,-99.99,,2013-08-29 12:12:00,
2013-08-29 06:52:00,49.0,-99.9,-100.00,SSE,160,1.0,-999.0,-999,-99.99,,,-99.99,,2013-08-29 13:52:00,
2013-08-29 07:02:00,49.0,-99.9,-100.00,SSE,160,1.0,-999.0,-999,-99.99,,,-99.99,,2013-08-29 14:02:00,
2013-08-29 07:11:00,49.0,-99.9,-100.00,SSE,160,1.0,-999.0,-999,-99.99,,,-99.99,,2013-08-29 14:11:00,
2013-08-29 07:52:00,49.0,47.0,-100.00,North,-999,-999.0,-999.0,91,-99.99,,,-99.99,,2013-08-29 14:52:00,
2013-08-29 08:02:00,49.0,47.0,-100.00,North,-999,-999.0,-999.0,91,-99.99,,,-99.99,,2013-08-29 15:02:00,
2013-08-29 09:13:00,-999.0,-99.9,-100.00,SSW,200,0.0,-999.0,-999,-99.99,,,-99.99,,2013-08-29 16:13:00,
2013-08-29 09:24:00,-999.0,-99.9,-100.00,SW,230,5.0,-999.0,-999,-99.99,,,-99.99,,2013-08-29 16:24:00,
2013-08-29 09:54:00,-999.0,-99.9,-100.00,WSW,240,3.0,-999.0,-999,-99.99,,,-99.99,,2013-08-29 16:54:00,
2013-08-29 10:44:00,70.0,-99.9,-100.00,West,260,4.0,-999.0,-999,-99.99,,,-99.99,,2013-08-29 17:44:00,
2013-08-29 10:53:00,-999.0,-99.9,-100.00,WSW,240,4.0,-999.0,-999,-99.99,,,-99.99,,2013-08-29 17:53:00,
2013-08-29 11:32:00,-999.0,-99.9,-100.00,West,270,3.0,-999.0,-999,-99.99,,,-99.99,,2013-08-29 18:32:00,
2013-08-29 12:42:00,-999.0,-99.9,-100.00,West,280,3.0,-999.0,-999,-99.99,,,-99.99,,2013-08-29 19:42:00,
2013-08-29 13:32:00,-999.0,-99.9,-100.00,West,280,4.0,-999.0,-999,-99.99,,,-99.99,,2013-08-29 20:32:00,
2013-08-29 13:42:00,-999.0,-99.9,-100.00,West,280,4.0,-999.0,-999,-99.99,,,-99.99,,2013-08-29 20:42:00,
2013-08-29 13:52:00,-999.0,-99.9,-100.00,West,260,6.0,-999.0,-999,-99.99,,,-99.99,,2013-08-29 20:52:00,
2013-08-29 14:12:00,-999.0,-99.9,-100.00,West,280,6.0,-999.0,-999,-99.99,,,-99.99,,2013-08-29 21:12:00,
2013-08-29 14:33:00,-999.0,-99.9,-100.00,West,260,6.0,-999.0,-999,-99.99,,,-99.99,,2013-08-29 21:33:00,
2013-08-29 14:44:00,-999.0,-99.9,-100.00,West,260,5.0,-999.0,-999,-99.99,,,-99.99,,2013-08-29 21:44:00,
2013-08-29 14:54:00,-999.0,-99.9,-100.00,West,260,4.0,-999.0,-999,-99.99,,,-99.99,,2013-08-29 21:54:00,
2013-08-29 15:14:00,-999.0,-99.9,-100.00,West,280,6.0,-999.0,-999,-99.99,,,-99.99,,2013-08-29 22:14:00,
2013-08-29 15:43:00,-999.0,-99.9,-100.00,West,280,5.0,-999.0,-999,-99.99,,,-99.99,,2013-08-29 22:43:00,
2013-08-29 15:53:00,-999.0,-99.9,-100.00,West,280,5.0,-999.0,-999,-99.99,,,-99.99,,2013-08-29 22:53:00,
2013-08-29 16:13:00,-999.0,-99.9,-100.00,West,280,5.0,-999.0,-999,-99.99,,,-99.99,,2013-08-29 23:13:00,
2013-08-29 16:22:00,-999.0,-99.9,-100.00,West,270,5.0,-999.0,-999,-99.99,,,-99.99,,2013-08-29 23:22:00,
2013-08-29 16:43:00,-999.0,-99.9,-100.00,West,270,5.0,-999.0,-999,-99.99,,,-99.99,,2013-08-29 23:43:00,
2013-08-29 16:53:00,75.0,-99.9,-100.00,North,-999,-999.0,-999.0,-999,-99.99,,,-99.99,,2013-08-29 23:53:00,
2013-08-29 17:12:00,-999.0,-99.9,-100.00,SW,230,5.0,-999.0,-999,-99.99,,,-99.99,,2013-08-30 00:12:00,
2013-08-29 17:32:00,-999.0,-99.9,-100.00,West,270,4.0,-999.0,-999,-99.99,,,-99.99,,2013-08-30 00:32:00,
2013-08-29 17:52:00,-999.0,-99.9,-100.00,WSW,250,4.0,-999.0,-999,-99.99,,,-99.99,,2013-08-30 00:52:00,
2013-08-29 18:02:00,-999.0,-99.9,-100.00,WSW,250,4.0,-999.0,-999,-99.99,,,-99.99,,2013-08-30 01:02:00,
2013-08-29 18:12:00,-999.0,-99.9,-100.00,WSW,250,3.0,-999.0,-999,-99.99,,,-99.99,,2013-08-30 01:12:00,
2013-08-29 18:32:00,-999.0,-99.9,-100.00,WSW,250,2.0,-999.0,-999,-99.99,,,-99.99,,2013-08-30 01:32:00,
2013-08-29 18:42:00,-999.0,-99.9,-100.00,WSW,250,2.0,-999.0,-999,-99.99,,,-99.99,,2013-08-30 01:42:00,
2013-08-29 20:12:00,67.0,48.0,-100.00,North,-999,-999.0,-999.0,50,-99.99,,,-99.99,,2013-08-30 03:12:00,
2013-08-29 20:22:00,67.0,48.0,-100.00,North,-999,-999.0,-999.0,50,-99.99,,,-99.99,,2013-08-30 03:22:00,
2013-08-29 20:34:00,67.0,48.0,-100.00,North,-999,-999.0,-999.0,50,-99.99,,,-99.99,,2013-08-30 03:34:00,
2013-08-29 21:44:00,58.0,44.0,-100.00,North,-999,-999.0,-999.0,59,-99.99,,,-99.99,,2013-08-30 04:44:00,
2013-08-29 22:42:00,54.0,43.0,-100.00,North,-999,-999.0,-999.0,66,-99.99,,,-99.99,,2013-08-30 05:42:00,
2013-08-29 22:52:00,54.0,43.0,-100.00,North,-999,-999.0,-999.0,66,-99.99,,,-99.99,,2013-08-30 05:52:00,